Alexandra Danos — WDD9560 — position and weather

sailwx.info

Track history (hours):
 
Tides and Currents Weather Stations Pressure Air Temp Water Temp Dewpoint Dewpoint Depression Visibility Wind Speed Wind Dir Waves Ship Positions

Alexandra Danos

Owner: GOL SUPPLY BOATS, LLC, MATHEWS, LA. More information available from US FCC via Universal Licensing System and Coast Guard Vessel Documentation Center.

Last reported at 2018-May-24 17:36 UTC. Time now 2018-May-27 11:45 UTC.
Position N 29°37' W 092°17'.

Length 47 m; draft 3 m.

Type: Ship. MMSI: 367313120.

Date/timePositionNaut miles runAvg speedWind from/ knotsBaromVisibWave heightAir tempDewpointWater temp
2018-May-24 17:36N 29°37' W 092°17'1 6.5
2018-May-24 17:30N 29°37' W 092°16'4 7.1
2018-May-24 17:00N 29°41' W 092°15'3 6.8
2018-May-24 16:30N 29°44' W 092°14'4 7.1
2018-May-24 16:00N 29°46' W 092°11'1 1.4
2018-May-24 15:30N 29°47' W 092°11'0 0.0
2018-May-24 15:00N 29°47' W 092°11'0 0.0
2018-May-24 14:30N 29°47' W 092°11'0 0.0
2018-May-24 14:00N 29°47' W 092°11'0 0.0
2018-May-24 13:30N 29°47' W 092°11'2 0.4
2018-May-24 09:00N 29°47' W 092°09'0 0.0
2018-May-24 08:30N 29°47' W 092°09'0 0.0
2018-May-24 08:00N 29°47' W 092°09'0 0.0
2018-May-24 07:30N 29°47' W 092°09'0 0.0
2018-May-24 07:00N 29°47' W 092°09'0 0.0
2018-May-24 06:30N 29°47' W 092°09'0 0.0
2018-May-24 06:00N 29°47' W 092°09'0 0.0
2018-May-24 05:30N 29°47' W 092°09'0 0.0
2018-May-24 05:00N 29°47' W 092°09'0 0.0
2018-May-24 04:30N 29°47' W 092°09'0 0.0
2018-May-24 04:00N 29°47' W 092°09'0 0.0
2018-May-24 03:30N 29°47' W 092°09'0 0.0
2018-May-24 03:00N 29°47' W 092°09'0 0.0
2018-May-24 02:30N 29°47' W 092°09'0 0.0
2018-May-24 02:00N 29°47' W 092°09'0 0.0
2018-May-24 01:30N 29°47' W 092°09'3 6.1
2018-May-24 01:00N 29°45' W 092°12'4 8.8
2018-May-24 00:30N 29°42' W 092°15'4 8.1
2018-May-24 00:00N 29°38' W 092°16'  
2018-May-18 16:05N 27°55' W 093°47'1 0.3
2018-May-18 11:44N 27°56' W 093°48'0 0.0
2018-May-18 11:06N 27°56' W 093°48'0 0.0
2018-May-18 10:44N 27°56' W 093°48'0 0.0
2018-May-18 10:26N 27°56' W 093°48'0 0.0
2018-May-18 10:00N 27°56' W 093°48'0 0.0
2018-May-18 09:30N 27°56' W 093°48'0 0.0
2018-May-18 08:54N 27°56' W 093°48'0 0.0
2018-May-18 08:26N 27°56' W 093°48'0 0.0
2018-May-18 07:44N 27°56' W 093°48'0 0.0
2018-May-18 06:50N 27°56' W 093°48'0 0.0
2018-May-18 06:29N 27°56' W 093°48'0 0.0
2018-May-18 05:52N 27°56' W 093°48'0 0.0
2018-May-18 05:30N 27°56' W 093°48'0 0.0
2018-May-18 04:59N 27°56' W 093°48'0 0.0
2018-May-18 04:30N 27°56' W 093°48'16 8.2
2018-May-18 02:30N 28°01' W 093°31'37 4.8
2018-May-17 18:51N 28°07' W 092°49'0 0.0
2018-May-17 18:30N 28°07' W 092°49'0 0.0
2018-May-17 17:40N 28°07' W 092°49'0 0.0
2018-May-17 17:27N 28°07' W 092°49'26 4.8
2018-May-17 12:04N 28°27' W 092°31'1 0.3
2018-May-17 09:52N 28°27' W 092°30'0 0.5
2018-May-17 09:30N 28°27' W 092°30'0 0.5
2018-May-17 09:00N 28°27' W 092°30'0 0.4
2018-May-17 08:26N 28°27' W 092°31'0 0.8
2018-May-17 07:53N 28°27' W 092°31'0 0.2
2018-May-17 07:13N 28°27' W 092°31'1 0.3
2018-May-17 04:58N 28°26' W 092°31'0 0.1
2018-May-17 04:04N 28°26' W 092°31'0 0.2
2018-May-17 03:45N 28°26' W 092°31'0 0.7
2018-May-17 03:29N 28°27' W 092°31'0 1.0
2018-May-17 03:00N 28°27' W 092°31'5 9.1
2018-May-17 02:29N 28°32' W 092°31'511.2
2018-May-17 02:00N 28°37' W 092°31'3911.2
2018-May-16 22:32N 29°15' W 092°22'410.8
2018-May-16 22:11N 29°19' W 092°22'310.7
2018-May-16 21:53N 29°22' W 092°21'410.5
2018-May-16 21:30N 29°26' W 092°20'5 8.7
2018-May-16 20:57N 29°30' W 092°19'2 3.8
2018-May-16 20:29N 29°32' W 092°18'1 1.9
2018-May-16 19:53N 29°33' W 092°18'15 2.8
2018-May-16 14:20N 29°47' W 092°10'1 1.7
2018-May-16 13:39N 29°47' W 092°11'0 0.0
2018-May-16 13:28N 29°47' W 092°11'0 0.0
2018-May-16 12:59N 29°47' W 092°11'0 0.0
2018-May-16 12:29N 29°47' W 092°11'0 0.4
2018-May-16 11:45N 29°47' W 092°11'1 4.7
2018-May-16 11:30N 29°47' W 092°09'0 0.4
2018-May-16 11:00N 29°47' W 092°09'0 0.0
2018-May-16 10:30N 29°47' W 092°09'0 0.0
2018-May-16 10:00N 29°47' W 092°09'0 0.0
2018-May-16 09:30N 29°47' W 092°09'0 0.0
2018-May-16 09:00N 29°47' W 092°09'0 0.0
2018-May-16 08:30N 29°47' W 092°09'37 3.9
2018-May-15 23:14N 29°13' W 092°25'3 9.9
2018-May-15 22:58N 29°11' W 092°26'1110.2
2018-May-15 21:55N 29°00' W 092°30'510.5
2018-May-15 21:24N 28°55' W 092°31'4110.4
2018-May-15 17:32N 28°17' W 092°46'110.8
2018-May-15 17:26N 28°16' W 092°46'4 9.2
2018-May-15 17:00N 28°12' W 092°48'1 1.6
2018-May-15 16:18N 28°13' W 092°47'0 0.6
2018-May-15 16:00N 28°13' W 092°47'0 0.6
2018-May-15 15:30N 28°13' W 092°47'1 0.7
2018-May-15 14:46N 28°13' W 092°48'0 0.0
2018-May-15 14:18N 28°13' W 092°48'0 0.0
2018-May-15 13:58N 28°13' W 092°48'0 0.0
2018-May-15 13:25N 28°13' W 092°48'0 0.4
2018-May-15 13:00N 28°13' W 092°48'1 1.9
2018-May-15 12:28N 28°12' W 092°48'5 9.0
2018-May-15 11:58N 28°08' W 092°50'2 4.9
2018-May-15 11:30N 28°06' W 092°51'0 0.4
2018-May-15 10:58N 28°06' W 092°51'2 3.0
2018-May-15 10:18N 28°04' W 092°50'1 1.3
2018-May-15 09:34N 28°05' W 092°49'0 0.3
2018-May-15 09:29N 28°05' W 092°49'0 0.5
2018-May-15 08:59N 28°05' W 092°49'0 0.6
2018-May-15 08:28N 28°05' W 092°49'2 1.0
2018-May-15 06:21N 28°07' W 092°49'0 0.1
2018-May-15 05:54N 28°07' W 092°49'2 1.4
2018-May-15 04:39N 28°07' W 092°51'0 0.5
2018-May-15 04:24N 28°07' W 092°51'0 0.5
2018-May-15 03:58N 28°07' W 092°51'0 0.5
2018-May-15 03:27N 28°07' W 092°51'0 0.5
2018-May-15 03:00N 28°07' W 092°51'1 0.3
2018-May-15 00:02N 28°07' W 092°49'1 5.3
2018-May-14 23:55N 28°06' W 092°50'  
Track history (hours):
 
Tides and Currents Weather Stations Pressure Air Temp Water Temp Dewpoint Dewpoint Depression Visibility Wind Speed Wind Dir Waves Ship Positions

Alexandra Danos

Owner: GOL SUPPLY BOATS, LLC, MATHEWS, LA. More information available from US FCC via Universal Licensing System and Coast Guard Vessel Documentation Center.

Last reported at 2018-May-24 17:36 UTC. Time now 2018-May-27 11:45 UTC.
Position N 29°37' W 092°17'.

Length 47 m; draft 3 m.

Type: Ship. MMSI: 367313120.

Date/timePositionNaut miles runAvg speedWind from/ knotsBaromVisibWave heightAir tempDewpointWater temp
2018-May-24 17:36N 29°37' W 092°17'1 6.5
2018-May-24 17:30N 29°37' W 092°16'4 7.1
2018-May-24 17:00N 29°41' W 092°15'3 6.8
2018-May-24 16:30N 29°44' W 092°14'4 7.1
2018-May-24 16:00N 29°46' W 092°11'1 1.4
2018-May-24 15:30N 29°47' W 092°11'0 0.0
2018-May-24 15:00N 29°47' W 092°11'0 0.0
2018-May-24 14:30N 29°47' W 092°11'0 0.0
2018-May-24 14:00N 29°47' W 092°11'0 0.0
2018-May-24 13:30N 29°47' W 092°11'2 0.4
2018-May-24 09:00N 29°47' W 092°09'0 0.0
2018-May-24 08:30N 29°47' W 092°09'0 0.0
2018-May-24 08:00N 29°47' W 092°09'0 0.0
2018-May-24 07:30N 29°47' W 092°09'0 0.0
2018-May-24 07:00N 29°47' W 092°09'0 0.0
2018-May-24 06:30N 29°47' W 092°09'0 0.0
2018-May-24 06:00N 29°47' W 092°09'0 0.0
2018-May-24 05:30N 29°47' W 092°09'0 0.0
2018-May-24 05:00N 29°47' W 092°09'0 0.0
2018-May-24 04:30N 29°47' W 092°09'0 0.0
2018-May-24 04:00N 29°47' W 092°09'0 0.0
2018-May-24 03:30N 29°47' W 092°09'0 0.0
2018-May-24 03:00N 29°47' W 092°09'0 0.0
2018-May-24 02:30N 29°47' W 092°09'0 0.0
2018-May-24 02:00N 29°47' W 092°09'0 0.0
2018-May-24 01:30N 29°47' W 092°09'3 6.1
2018-May-24 01:00N 29°45' W 092°12'4 8.8
2018-May-24 00:30N 29°42' W 092°15'4 8.1
2018-May-24 00:00N 29°38' W 092°16'  
2018-May-18 16:05N 27°55' W 093°47'1 0.3
2018-May-18 11:44N 27°56' W 093°48'0 0.0
2018-May-18 11:06N 27°56' W 093°48'0 0.0
2018-May-18 10:44N 27°56' W 093°48'0 0.0
2018-May-18 10:26N 27°56' W 093°48'0 0.0
2018-May-18 10:00N 27°56' W 093°48'0 0.0
2018-May-18 09:30N 27°56' W 093°48'0 0.0
2018-May-18 08:54N 27°56' W 093°48'0 0.0
2018-May-18 08:26N 27°56' W 093°48'0 0.0
2018-May-18 07:44N 27°56' W 093°48'0 0.0
2018-May-18 06:50N 27°56' W 093°48'0 0.0
2018-May-18 06:29N 27°56' W 093°48'0 0.0
2018-May-18 05:52N 27°56' W 093°48'0 0.0
2018-May-18 05:30N 27°56' W 093°48'0 0.0
2018-May-18 04:59N 27°56' W 093°48'0 0.0
2018-May-18 04:30N 27°56' W 093°48'16 8.2
2018-May-18 02:30N 28°01' W 093°31'37 4.8
2018-May-17 18:51N 28°07' W 092°49'0 0.0
2018-May-17 18:30N 28°07' W 092°49'0 0.0
2018-May-17 17:40N 28°07' W 092°49'0 0.0
2018-May-17 17:27N 28°07' W 092°49'26 4.8
2018-May-17 12:04N 28°27' W 092°31'1 0.3
2018-May-17 09:52N 28°27' W 092°30'0 0.5
2018-May-17 09:30N 28°27' W 092°30'0 0.5
2018-May-17 09:00N 28°27' W 092°30'0 0.4
2018-May-17 08:26N 28°27' W 092°31'0 0.8
2018-May-17 07:53N 28°27' W 092°31'0 0.2
2018-May-17 07:13N 28°27' W 092°31'1 0.3
2018-May-17 04:58N 28°26' W 092°31'0 0.1
2018-May-17 04:04N 28°26' W 092°31'0 0.2
2018-May-17 03:45N 28°26' W 092°31'0 0.7
2018-May-17 03:29N 28°27' W 092°31'0 1.0
2018-May-17 03:00N 28°27' W 092°31'5 9.1
2018-May-17 02:29N 28°32' W 092°31'511.2
2018-May-17 02:00N 28°37' W 092°31'3911.2
2018-May-16 22:32N 29°15' W 092°22'410.8
2018-May-16 22:11N 29°19' W 092°22'310.7
2018-May-16 21:53N 29°22' W 092°21'410.5
2018-May-16 21:30N 29°26' W 092°20'5 8.7
2018-May-16 20:57N 29°30' W 092°19'2 3.8
2018-May-16 20:29N 29°32' W 092°18'1 1.9
2018-May-16 19:53N 29°33' W 092°18'15 2.8
2018-May-16 14:20N 29°47' W 092°10'1 1.7
2018-May-16 13:39N 29°47' W 092°11'0 0.0
2018-May-16 13:28N 29°47' W 092°11'0 0.0
2018-May-16 12:59N 29°47' W 092°11'0 0.0
2018-May-16 12:29N 29°47' W 092°11'0 0.4
2018-May-16 11:45N 29°47' W 092°11'1 4.7
2018-May-16 11:30N 29°47' W 092°09'0 0.4
2018-May-16 11:00N 29°47' W 092°09'0 0.0
2018-May-16 10:30N 29°47' W 092°09'0 0.0
2018-May-16 10:00N 29°47' W 092°09'0 0.0
2018-May-16 09:30N 29°47' W 092°09'0 0.0
2018-May-16 09:00N 29°47' W 092°09'0 0.0
2018-May-16 08:30N 29°47' W 092°09'37 3.9
2018-May-15 23:14N 29°13' W 092°25'3 9.9
2018-May-15 22:58N 29°11' W 092°26'1110.2
2018-May-15 21:55N 29°00' W 092°30'510.5
2018-May-15 21:24N 28°55' W 092°31'4110.4
2018-May-15 17:32N 28°17' W 092°46'110.8
2018-May-15 17:26N 28°16' W 092°46'4 9.2
2018-May-15 17:00N 28°12' W 092°48'1 1.6
2018-May-15 16:18N 28°13' W 092°47'0 0.6
2018-May-15 16:00N 28°13' W 092°47'0 0.6
2018-May-15 15:30N 28°13' W 092°47'1 0.7
2018-May-15 14:46N 28°13' W 092°48'0 0.0
2018-May-15 14:18N 28°13' W 092°48'0 0.0
2018-May-15 13:58N 28°13' W 092°48'0 0.0
2018-May-15 13:25N 28°13' W 092°48'0 0.4
2018-May-15 13:00N 28°13' W 092°48'1 1.9
2018-May-15 12:28N 28°12' W 092°48'5 9.0
2018-May-15 11:58N 28°08' W 092°50'2 4.9
2018-May-15 11:30N 28°06' W 092°51'0 0.4
2018-May-15 10:58N 28°06' W 092°51'2 3.0
2018-May-15 10:18N 28°04' W 092°50'1 1.3
2018-May-15 09:34N 28°05' W 092°49'0 0.3
2018-May-15 09:29N 28°05' W 092°49'0 0.5
2018-May-15 08:59N 28°05' W 092°49'0 0.6
2018-May-15 08:28N 28°05' W 092°49'2 1.0
2018-May-15 06:21N 28°07' W 092°49'0 0.1
2018-May-15 05:54N 28°07' W 092°49'2 1.4
2018-May-15 04:39N 28°07' W 092°51'0 0.5
2018-May-15 04:24N 28°07' W 092°51'0 0.5
2018-May-15 03:58N 28°07' W 092°51'0 0.5
2018-May-15 03:27N 28°07' W 092°51'0 0.5
2018-May-15 03:00N 28°07' W 092°51'1 0.3
2018-May-15 00:02N 28°07' W 092°49'1 5.3
2018-May-14 23:55N 28°06' W 092°50'  

Dump ship's entire track history